Monthalia, Texas
Current Conditions -  °F | °C
As of 12:51 PM on Friday 31 Oct 2014 (Local Time) from KBAZ Reporting Station
Clear Clear  
Wind Chill: 77°   Ceiling: Unl
Heat Index: 78°   Visibility: 10mi
Dew Point: 41°   Wind: 16mph
Humidity: 28%   Direction: 20°NNE
Pressure: 30.25"   Gusts: 26mph
Location:  29.4298°N, 97.5714°W
Report Text: KBAZ 311751Z 02014G23KT 10SM CLR 25/05 A3025 RMK AO2 PK WND 03026/1718 SLP238 T02500050 10250 20172 58003
Loading
Personal Weather Stations






























Interactive Weather Map
Tropical Storm Tracking
New forecast layout! Learn more

10-Day Weather Forecast

Advertisements
Track Severe Weather on mobile